createdAt,value
2022-12-24T00:01:43.236Z,4.13
2022-12-24T00:04:10.625Z,4.40
2022-12-24T00:06:37.599Z,4.10
2022-12-24T00:09:04.577Z,4.13
2022-12-24T00:11:31.433Z,4.40
2022-12-24T00:14:00.019Z,4.80
2022-12-24T00:16:27.116Z,5.17
2022-12-24T00:18:54.483Z,5.67
2022-12-24T00:21:21.396Z,4.53
2022-12-24T00:23:48.849Z,7.63
2022-12-24T00:26:15.750Z,6.57
2022-12-24T00:28:43.018Z,4.83
2022-12-24T00:31:13.694Z,4.30
2022-12-24T00:33:41.081Z,4.37
2022-12-24T00:36:08.927Z,4.40
2022-12-24T00:38:36.316Z,4.40
2022-12-24T00:41:06.392Z,4.77
2022-12-24T00:43:33.556Z,4.57
2022-12-24T00:46:00.890Z,5.00
2022-12-24T00:48:29.578Z,6.10
2022-12-24T00:50:56.448Z,7.60
2022-12-24T00:53:23.683Z,6.23
2022-12-24T00:55:50.460Z,5.73
2022-12-24T00:58:17.560Z,4.63
2022-12-24T01:00:44.290Z,4.33
2022-12-24T01:03:11.493Z,4.77
2022-12-24T01:05:39.703Z,5.90
2022-12-24T01:08:06.912Z,6.20
2022-12-24T01:10:33.663Z,6.47
2022-12-24T01:13:02.638Z,6.77
2022-12-24T01:15:30.029Z,7.30
2022-12-24T01:17:58.469Z,6.57
2022-12-24T01:20:27.053Z,7.00
2022-12-24T01:22:56.044Z,7.33
2022-12-24T01:25:22.870Z,6.93
2022-12-24T01:27:50.062Z,7.23
2022-12-24T01:30:16.848Z,7.97
2022-12-24T01:32:44.005Z,5.13
2022-12-24T01:35:11.275Z,5.40
2022-12-24T01:37:38.764Z,6.30
2022-12-24T01:40:29.237Z,6.27
2022-12-24T01:43:15.143Z,5.40
2022-12-24T01:45:45.629Z,5.23
2022-12-24T01:48:21.699Z,5.27
2022-12-24T01:50:51.081Z,6.93
2022-12-24T01:53:18.888Z,7.57
2022-12-24T01:55:47.701Z,7.13
2022-12-24T01:58:18.285Z,6.70
2022-12-24T02:00:45.709Z,6.77
2022-12-24T02:03:13.225Z,7.67
2022-12-24T02:05:47.327Z,7.77
2022-12-24T02:08:15.334Z,7.83
2022-12-24T02:10:42.530Z,10.30
2022-12-24T02:13:12.435Z,9.47
2022-12-24T02:15:52.039Z,6.80
2022-12-24T02:18:26.310Z,6.10
2022-12-24T02:21:10.279Z,6.53
2022-12-24T02:24:02.309Z,6.43
2022-12-24T02:26:46.019Z,6.63
2022-12-24T02:29:27.289Z,6.60
2022-12-24T02:32:01.287Z,6.40
2022-12-24T02:34:33.438Z,6.50
2022-12-24T02:37:05.194Z,6.60
2022-12-24T02:39:38.627Z,6.70
2022-12-24T02:42:07.989Z,6.40
2022-12-24T02:44:41.294Z,7.17
2022-12-24T02:47:11.514Z,6.57
2022-12-24T02:49:38.946Z,7.03
2022-12-24T02:52:06.064Z,7.47
2022-12-24T02:54:33.823Z,7.20
2022-12-24T02:57:10.386Z,8.07
2022-12-24T02:59:59.519Z,8.07
2022-12-24T03:02:40.433Z,8.40
2022-12-24T03:05:17.919Z,8.13
2022-12-24T03:07:53.310Z,8.90
2022-12-24T03:10:24.818Z,9.20
2022-12-24T03:12:55.479Z,8.33
2022-12-24T03:15:25.926Z,9.43
2022-12-24T03:17:57.591Z,8.93
2022-12-24T03:20:32.289Z,9.33
2022-12-24T03:22:59.238Z,9.23
2022-12-24T03:25:27.109Z,9.20
2022-12-24T03:27:56.837Z,8.53
2022-12-24T03:30:24.058Z,9.10
2022-12-24T03:32:50.873Z,8.93
2022-12-24T03:35:19.361Z,9.00
2022-12-24T03:37:46.260Z,9.30
2022-12-24T03:40:13.559Z,9.47
2022-12-24T03:42:40.891Z,9.70
2022-12-24T03:45:08.603Z,8.73
2022-12-24T03:47:35.759Z,7.93
2022-12-24T03:50:02.591Z,7.83
2022-12-24T03:52:30.709Z,7.43
2022-12-24T03:54:57.854Z,7.27
2022-12-24T03:57:25.145Z,6.23
2022-12-24T03:59:51.901Z,5.30
2022-12-24T04:02:18.957Z,4.20
2022-12-24T04:04:45.769Z,4.67
2022-12-24T04:07:12.989Z,3.37
2022-12-24T04:09:41.329Z,3.50
2022-12-24T04:12:08.577Z,3.20
2022-12-24T04:14:35.386Z,3.00
2022-12-24T04:17:02.568Z,3.03
2022-12-24T04:19:29.528Z,2.83
2022-12-24T04:21:56.703Z,2.67
2022-12-24T04:24:23.677Z,3.47
2022-12-24T04:26:52.238Z,3.13
2022-12-24T04:29:19.173Z,2.90
2022-12-24T04:31:46.021Z,3.30
2022-12-24T04:34:13.111Z,2.67
2022-12-24T04:36:39.978Z,2.93
2022-12-24T04:39:07.369Z,3.23
2022-12-24T04:41:35.466Z,3.70
2022-12-24T04:44:04.001Z,3.53
2022-12-24T04:46:31.100Z,3.10
2022-12-24T04:48:58.707Z,3.23
2022-12-24T04:51:26.558Z,3.63
2022-12-24T04:53:54.450Z,3.27
2022-12-24T04:56:22.841Z,3.00
2022-12-24T04:58:50.954Z,3.60
2022-12-24T05:01:21.323Z,4.10
2022-12-24T05:03:48.901Z,4.40
2022-12-24T05:06:18.180Z,3.90
2022-12-24T05:08:45.383Z,4.60
2022-12-24T05:11:15.745Z,4.20
2022-12-24T05:13:47.310Z,4.20
2022-12-24T05:16:15.641Z,4.20
2022-12-24T05:18:44.595Z,4.03
2022-12-24T05:21:14.670Z,3.00
2022-12-24T05:24:00.602Z,3.70
2022-12-24T05:26:30.539Z,3.13
2022-12-24T05:28:59.386Z,3.80
2022-12-24T05:31:27.898Z,3.90
2022-12-24T05:33:57.133Z,3.93
2022-12-24T05:36:24.389Z,3.73
2022-12-24T05:38:52.425Z,3.50
2022-12-24T05:41:19.378Z,3.97
2022-12-24T05:43:46.790Z,3.63
2022-12-24T05:46:18.720Z,4.00
2022-12-24T05:48:46.361Z,3.87
2022-12-24T05:51:18.683Z,3.37
2022-12-24T05:53:46.299Z,4.37
2022-12-24T05:56:15.781Z,3.57
2022-12-24T05:58:43.304Z,4.13
2022-12-24T06:01:11.710Z,3.17
2022-12-24T06:03:39.168Z,3.83
2022-12-24T06:06:08.217Z,3.53
2022-12-24T06:08:37.973Z,3.40
2022-12-24T06:11:06.816Z,3.83
2022-12-24T06:13:34.511Z,3.53
2022-12-24T06:16:04.233Z,2.90
2022-12-24T06:18:32.875Z,3.87
2022-12-24T06:21:00.392Z,4.07
2022-12-24T06:23:30.039Z,3.93
2022-12-24T06:26:01.013Z,3.63
2022-12-24T06:28:29.132Z,3.87
2022-12-24T06:31:02.409Z,4.67
2022-12-24T06:33:30.887Z,5.20
2022-12-24T06:35:57.729Z,4.83
2022-12-24T06:38:24.946Z,5.53
2022-12-24T06:40:52.146Z,5.60
2022-12-24T06:43:21.137Z,5.50
2022-12-24T06:45:48.539Z,5.90
2022-12-24T06:48:16.870Z,5.30
2022-12-24T06:50:43.849Z,5.63
2022-12-24T06:53:11.088Z,5.63
2022-12-24T06:55:37.966Z,5.97
2022-12-24T06:58:05.400Z,5.07
2022-12-24T07:00:33.718Z,5.73
2022-12-24T07:03:00.941Z,6.27
2022-12-24T07:05:28.133Z,6.27
2022-12-24T07:07:55.751Z,6.37
2022-12-24T07:10:23.410Z,6.03
2022-12-24T07:12:50.259Z,6.37
2022-12-24T07:15:17.250Z,6.73
2022-12-24T07:17:45.774Z,6.73
2022-12-24T07:20:17.352Z,5.70
2022-12-24T07:22:44.565Z,6.67
2022-12-24T07:25:11.786Z,6.27
2022-12-24T07:27:39.068Z,5.23
2022-12-24T07:30:07.460Z,7.07
2022-12-24T07:32:35.140Z,5.83
2022-12-24T07:35:03.517Z,5.10
2022-12-24T07:37:30.624Z,6.53
2022-12-24T07:39:57.425Z,6.37
2022-12-24T07:42:24.657Z,5.80
2022-12-24T07:44:51.461Z,5.13
2022-12-24T07:47:18.610Z,5.43
2022-12-24T07:49:45.444Z,6.17
2022-12-24T07:52:13.985Z,5.00
2022-12-24T07:54:41.116Z,5.90
2022-12-24T07:57:07.956Z,5.03
2022-12-24T07:59:34.877Z,5.90
2022-12-24T08:02:01.899Z,5.30
2022-12-24T08:04:31.729Z,5.93
2022-12-24T08:06:58.505Z,6.20
2022-12-24T08:09:27.004Z,5.97
2022-12-24T08:11:53.861Z,6.43
2022-12-24T08:14:21.017Z,5.77
2022-12-24T08:16:47.892Z,6.67
2022-12-24T08:19:14.768Z,5.57
2022-12-24T08:21:41.571Z,6.70
2022-12-24T08:24:08.756Z,7.03
2022-12-24T08:26:37.139Z,5.37
2022-12-24T08:29:05.582Z,5.17
2022-12-24T08:31:36.464Z,5.70
2022-12-24T08:34:04.128Z,6.30
2022-12-24T08:36:30.959Z,5.33
2022-12-24T08:38:58.432Z,5.50
2022-12-24T08:41:25.262Z,6.33
2022-12-24T08:43:53.750Z,6.23
2022-12-24T08:46:20.589Z,6.57
2022-12-24T08:48:47.824Z,6.27
2022-12-24T08:51:14.644Z,6.33
2022-12-24T08:53:42.046Z,5.63
2022-12-24T08:56:10.290Z,6.40
2022-12-24T08:58:37.423Z,7.37
2022-12-24T09:01:13.263Z,5.43
2022-12-24T09:03:40.695Z,5.67
2022-12-24T09:06:08.459Z,6.17
2022-12-24T09:08:37.124Z,6.83
2022-12-24T09:11:05.897Z,6.50
2022-12-24T09:13:34.204Z,5.73
2022-12-24T09:16:01.046Z,6.40
2022-12-24T09:18:29.481Z,5.57
2022-12-24T09:21:00.664Z,6.07
2022-12-24T09:23:27.735Z,6.57
2022-12-24T09:25:54.756Z,6.63
2022-12-24T09:28:22.889Z,7.17
2022-12-24T09:30:58.037Z,6.77
2022-12-24T09:33:25.524Z,6.77
2022-12-24T09:35:53.997Z,8.33
2022-12-24T09:38:21.488Z,7.73
2022-12-24T09:40:49.114Z,7.80
2022-12-24T09:43:19.378Z,8.33
2022-12-24T09:45:51.363Z,8.53
2022-12-24T09:48:24.399Z,8.43
2022-12-24T09:50:56.784Z,7.30
2022-12-24T09:53:29.412Z,8.77
2022-12-24T09:55:58.972Z,9.03
2022-12-24T09:58:31.279Z,9.50
2022-12-24T10:00:58.288Z,8.37
2022-12-24T10:03:25.787Z,8.17
2022-12-24T10:06:05.627Z,8.63
2022-12-24T10:08:42.700Z,8.30
2022-12-24T10:11:19.637Z,10.47
2022-12-24T10:14:03.850Z,7.90
2022-12-24T10:16:42.170Z,8.27
2022-12-24T10:19:16.220Z,8.80
2022-12-24T10:22:00.090Z,8.03
2022-12-24T10:24:34.764Z,7.57
2022-12-24T10:27:07.128Z,7.87
2022-12-24T10:29:40.592Z,7.13
2022-12-24T10:32:17.771Z,8.17
2022-12-24T10:34:49.776Z,6.70
2022-12-24T10:37:24.201Z,7.97
2022-12-24T10:39:51.345Z,6.93
2022-12-24T10:42:19.846Z,7.80
2022-12-24T10:44:52.333Z,6.67
2022-12-24T10:47:22.381Z,7.70
2022-12-24T10:49:58.255Z,7.23
2022-12-24T10:52:33.083Z,7.00
2022-12-24T10:55:11.147Z,7.07
2022-12-24T10:57:40.184Z,6.87
2022-12-24T11:00:18.152Z,6.43
2022-12-24T11:02:46.920Z,6.77
2022-12-24T11:05:30.770Z,7.30
2022-12-24T11:08:04.980Z,7.90
2022-12-24T11:10:35.916Z,7.93
2022-12-24T11:13:35.484Z,7.00
2022-12-24T11:15:59.895Z,7.43
2022-12-24T11:18:26.914Z,6.93
2022-12-24T11:20:54.164Z,7.87
2022-12-24T11:23:24.149Z,7.63
2022-12-24T11:25:51.852Z,7.23
2022-12-24T11:28:22.248Z,8.40
2022-12-24T11:31:01.845Z,6.73
2022-12-24T11:33:30.157Z,8.00
2022-12-24T11:36:02.303Z,7.83
2022-12-24T11:38:32.693Z,7.00
2022-12-24T11:41:05.839Z,6.40
2022-12-24T11:43:45.644Z,6.80
2022-12-24T11:46:19.225Z,6.70
2022-12-24T11:48:47.389Z,7.37
2022-12-24T11:51:25.137Z,6.53
2022-12-24T11:54:01.010Z,6.20
2022-12-24T11:56:35.448Z,7.07
2022-12-24T11:59:13.219Z,6.50
2022-12-24T12:01:51.068Z,5.97
2022-12-24T12:04:21.932Z,5.67
2022-12-24T12:06:51.739Z,6.23
2022-12-24T12:09:22.383Z,5.90
2022-12-24T12:11:54.298Z,6.10
2022-12-24T12:14:25.895Z,6.40
2022-12-24T12:17:00.637Z,5.70
2022-12-24T12:19:29.391Z,5.70
2022-12-24T12:21:56.227Z,6.20
2022-12-24T12:24:32.038Z,6.50
2022-12-24T12:27:07.921Z,5.60
2022-12-24T12:29:42.618Z,5.70
2022-12-24T12:32:14.987Z,5.80
2022-12-24T12:34:49.500Z,6.17
2022-12-24T12:37:24.441Z,5.60
2022-12-24T12:39:53.345Z,5.60
2022-12-24T12:42:29.315Z,5.53
2022-12-24T12:45:10.406Z,5.30
2022-12-24T12:47:52.545Z,5.30
2022-12-24T12:50:25.745Z,5.07
2022-12-24T12:53:03.697Z,4.53
2022-12-24T12:55:42.028Z,4.30
2022-12-24T12:58:17.743Z,4.40
2022-12-24T13:00:46.759Z,5.17
2022-12-24T13:03:35.051Z,4.13
2022-12-24T13:06:27.734Z,4.03
2022-12-24T13:09:14.750Z,4.03
2022-12-24T13:12:00.436Z,3.20
2022-12-24T13:15:06.273Z,3.33
2022-12-24T13:18:00.627Z,3.27
2022-12-24T13:20:29.992Z,3.13
2022-12-24T13:22:59.458Z,3.07
2022-12-24T13:25:30.808Z,2.47
2022-12-24T13:28:15.649Z,3.07
2022-12-24T13:30:43.653Z,3.00
2022-12-24T13:33:12.173Z,3.20
2022-12-24T13:35:59.223Z,3.17
2022-12-24T13:38:38.929Z,2.30
2022-12-24T13:41:42.293Z,2.87
2022-12-24T13:44:33.892Z,3.93
2022-12-24T13:47:24.213Z,3.20
2022-12-24T13:49:59.904Z,3.67
2022-12-24T13:52:30.513Z,2.90
2022-12-24T13:55:17.728Z,3.30
2022-12-24T13:57:54.252Z,3.00
2022-12-24T14:00:45.144Z,2.90
2022-12-24T14:03:32.059Z,3.53
2022-12-24T14:06:01.709Z,3.13
2022-12-24T14:08:40.400Z,3.77
2022-12-24T14:11:10.962Z,3.17
2022-12-24T14:14:12.555Z,3.70
2022-12-24T14:16:57.933Z,3.63
2022-12-24T14:19:33.683Z,4.03
2022-12-24T14:22:14.491Z,4.60
2022-12-24T14:24:43.767Z,3.97
2022-12-24T14:27:18.292Z,3.60
2022-12-24T14:29:51.125Z,3.43
2022-12-24T14:32:19.438Z,4.77
2022-12-24T14:34:46.687Z,4.17
2022-12-24T14:37:14.241Z,4.40
2022-12-24T14:39:44.675Z,4.57
2022-12-24T14:42:29.262Z,4.33
2022-12-24T14:45:03.949Z,7.07
2022-12-24T14:47:40.293Z,2.30
2022-12-24T14:50:44.661Z,2.13
2022-12-24T14:53:24.378Z,2.47
2022-12-24T14:55:51.321Z,2.40
2022-12-24T14:58:30.648Z,1.87
2022-12-24T15:00:59.405Z,2.20
2022-12-24T15:03:29.950Z,2.10
2022-12-24T15:06:00.620Z,2.50
2022-12-24T15:08:33.791Z,2.40
2022-12-24T15:11:03.953Z,2.47
2022-12-24T15:13:37.015Z,2.90
2022-12-24T15:16:07.450Z,2.73
2022-12-24T15:18:39.642Z,2.87
2022-12-24T15:21:14.160Z,3.10
2022-12-24T15:23:46.689Z,2.70
2022-12-24T15:26:24.616Z,3.00
2022-12-24T15:28:58.206Z,2.90
2022-12-24T15:31:30.051Z,3.30
2022-12-24T15:33:59.658Z,3.37
2022-12-24T15:36:29.994Z,3.50
2022-12-24T15:38:59.102Z,4.07
2022-12-24T15:41:30.031Z,4.17
2022-12-24T15:44:02.436Z,5.13
2022-12-24T15:46:31.163Z,4.93
2022-12-24T15:49:01.951Z,5.43
2022-12-24T15:51:32.356Z,5.20
2022-12-24T15:54:03.229Z,5.20
2022-12-24T15:56:35.852Z,5.77
2022-12-24T15:59:29.416Z,5.93
2022-12-24T16:01:57.589Z,5.83
2022-12-24T16:04:28.130Z,6.17
2022-12-24T16:06:56.683Z,5.63
2022-12-24T16:09:43.809Z,6.30
2022-12-24T16:12:16.883Z,7.10
2022-12-24T16:14:48.879Z,7.57
2022-12-24T16:17:22.046Z,7.30
2022-12-24T16:19:53.281Z,8.90
2022-12-24T16:22:31.391Z,7.10
2022-12-24T16:24:59.258Z,8.60
2022-12-24T16:27:26.290Z,6.97
2022-12-24T16:29:53.640Z,7.83
2022-12-24T16:32:30.503Z,6.90
2022-12-24T16:34:59.641Z,7.77
2022-12-24T16:37:26.537Z,8.37
2022-12-24T16:39:53.377Z,7.63
2022-12-24T16:42:38.637Z,8.10
2022-12-24T16:45:06.774Z,8.90
2022-12-24T16:47:42.075Z,9.73
2022-12-24T16:50:16.456Z,9.40
2022-12-24T16:52:43.365Z,9.20
2022-12-24T16:55:13.609Z,10.27
2022-12-24T16:57:41.428Z,9.77
2022-12-24T17:00:18.764Z,10.77
2022-12-24T17:02:47.683Z,10.27
2022-12-24T17:05:16.512Z,10.70
2022-12-24T17:07:44.329Z,10.83
2022-12-24T17:10:13.953Z,17.30
2022-12-24T17:12:41.500Z,17.63
2022-12-24T17:15:09.297Z,11.87
2022-12-24T17:17:36.342Z,12.20
2022-12-24T17:20:04.981Z,12.73
2022-12-24T17:22:33.207Z,12.73
2022-12-24T17:25:00.601Z,12.57
2022-12-24T17:27:27.447Z,13.20
2022-12-24T17:29:54.803Z,13.07
2022-12-24T17:32:21.756Z,13.07
2022-12-24T17:34:50.058Z,13.83
2022-12-24T17:37:16.861Z,12.37
2022-12-24T17:39:45.231Z,14.23
2022-12-24T17:42:12.229Z,14.70
2022-12-24T17:44:39.364Z,14.17
2022-12-24T17:47:06.141Z,13.97
2022-12-24T17:49:33.751Z,13.90
2022-12-24T17:52:00.829Z,14.13
2022-12-24T17:54:28.013Z,14.20
2022-12-24T17:56:56.126Z,14.73
2022-12-24T17:59:23.124Z,14.13
2022-12-24T18:01:50.096Z,15.57
2022-12-24T18:04:17.421Z,15.27
2022-12-24T18:06:48.990Z,15.53
2022-12-24T18:09:16.896Z,13.10
2022-12-24T18:11:43.853Z,13.40
2022-12-24T18:14:14.425Z,13.60
2022-12-24T18:16:42.176Z,14.57
2022-12-24T18:19:12.063Z,13.70
2022-12-24T18:21:39.652Z,12.50
2022-12-24T18:24:07.335Z,13.33
2022-12-24T18:26:35.320Z,13.50
2022-12-24T18:29:06.346Z,13.20
2022-12-24T18:31:34.979Z,13.93
2022-12-24T18:34:04.244Z,14.17
2022-12-24T18:36:31.142Z,14.23
2022-12-24T18:38:58.530Z,15.07
2022-12-24T18:41:27.051Z,14.90
2022-12-24T18:43:54.737Z,15.43
2022-12-24T18:46:23.622Z,15.83
2022-12-24T18:48:53.356Z,14.73
2022-12-24T18:51:22.276Z,14.30
2022-12-24T18:53:49.183Z,13.80
2022-12-24T18:56:18.575Z,15.57
2022-12-24T18:58:46.217Z,15.73
2022-12-24T19:01:14.441Z,15.77
2022-12-24T19:03:41.853Z,15.83
2022-12-24T19:06:10.516Z,15.93
2022-12-24T19:11:25.909Z,14.67
2022-12-24T19:13:53.456Z,14.67
2022-12-24T19:16:21.069Z,15.07
2022-12-24T19:18:48.535Z,14.97
2022-12-24T19:21:17.843Z,14.77
2022-12-24T19:23:45.845Z,15.37
2022-12-24T19:26:13.962Z,14.73
2022-12-24T19:28:41.267Z,15.83
2022-12-24T19:31:11.304Z,15.47
2022-12-24T19:33:42.849Z,15.13
2022-12-24T19:36:12.412Z,15.37
2022-12-24T19:38:41.096Z,15.10
2022-12-24T19:41:09.175Z,16.33
2022-12-24T19:43:38.392Z,15.80
2022-12-24T19:46:05.627Z,17.60
2022-12-24T19:48:32.990Z,14.93
2022-12-24T19:51:01.235Z,16.17
2022-12-24T19:53:28.463Z,14.40
2022-12-24T19:55:56.973Z,14.63
2022-12-24T19:58:24.181Z,15.47
2022-12-24T20:00:51.117Z,14.73
2022-12-24T20:03:18.308Z,15.47
2022-12-24T20:05:45.127Z,15.63
2022-12-24T20:08:12.163Z,15.33
2022-12-24T20:10:39.796Z,15.17
2022-12-24T20:13:08.500Z,15.50
2022-12-24T20:15:38.847Z,14.70
2022-12-24T20:18:05.979Z,14.67
2022-12-24T20:20:32.825Z,15.83
2022-12-24T20:22:59.915Z,15.77
2022-12-24T20:25:27.061Z,16.73
2022-12-24T20:27:53.888Z,15.40
2022-12-24T20:30:22.405Z,16.67
2022-12-24T20:32:52.725Z,15.47
2022-12-24T20:35:19.941Z,16.13
2022-12-24T20:37:46.755Z,16.70
2022-12-24T20:40:14.395Z,17.10
2022-12-24T20:42:41.221Z,15.67
2022-12-24T20:45:08.709Z,16.20
2022-12-24T20:47:36.796Z,15.93
2022-12-24T20:50:04.533Z,15.43
2022-12-24T20:52:31.291Z,14.93
2022-12-24T20:54:58.427Z,15.23
2022-12-24T20:57:28.776Z,15.67
2022-12-24T20:59:58.619Z,15.60
2022-12-24T21:02:25.529Z,15.07
2022-12-24T21:04:59.816Z,15.17
2022-12-24T21:07:28.627Z,16.87
2022-12-24T21:09:55.669Z,16.47
2022-12-24T21:12:41.253Z,16.07
2022-12-24T21:15:08.468Z,14.97
2022-12-24T21:17:35.329Z,16.07
2022-12-24T21:20:04.308Z,16.10
2022-12-24T21:22:31.161Z,15.17
2022-12-24T21:24:58.073Z,15.50
2022-12-24T21:27:24.963Z,15.90
2022-12-24T21:29:52.064Z,14.80
2022-12-24T21:32:18.882Z,14.30
2022-12-24T21:34:46.031Z,14.97
2022-12-24T21:37:14.169Z,14.03
2022-12-24T21:39:41.304Z,16.20
2022-12-24T21:42:08.143Z,15.70
2022-12-24T21:44:35.914Z,14.50
2022-12-24T21:47:03.837Z,14.13
2022-12-24T21:49:50.015Z,13.57
2022-12-24T21:52:18.477Z,13.13
2022-12-24T21:54:45.614Z,13.33
2022-12-24T21:57:30.984Z,13.90
2022-12-24T22:00:19.485Z,12.90
2022-12-24T22:02:46.759Z,13.43
2022-12-24T22:05:14.369Z,14.40
2022-12-24T22:08:01.059Z,13.27
2022-12-24T22:10:47.185Z,12.40
2022-12-24T22:13:14.142Z,12.60
2022-12-24T22:15:44.318Z,13.90
2022-12-24T22:18:11.153Z,25.57
2022-12-24T22:20:39.110Z,15.87
2022-12-24T22:23:07.336Z,15.60
2022-12-24T22:25:34.996Z,15.27
2022-12-24T22:28:01.872Z,14.87
2022-12-24T22:30:28.783Z,14.77
2022-12-24T22:32:55.643Z,14.60
2022-12-24T22:35:22.782Z,16.27
2022-12-24T22:37:53.037Z,14.40
2022-12-24T22:40:24.369Z,15.50
2022-12-24T22:42:51.162Z,16.10
2022-12-24T22:45:22.170Z,16.33
2022-12-24T22:47:49.691Z,17.10
2022-12-24T22:50:16.854Z,16.40
2022-12-24T22:52:43.799Z,17.07
2022-12-24T22:55:10.693Z,17.63
2022-12-24T22:57:38.835Z,16.50
2022-12-24T23:00:11.257Z,18.17
2022-12-24T23:02:38.246Z,18.07
2022-12-24T23:05:06.006Z,17.47
2022-12-24T23:07:32.809Z,17.07
2022-12-24T23:10:00.074Z,15.20
2022-12-24T23:12:45.755Z,15.83
2022-12-24T23:15:14.266Z,16.03
2022-12-24T23:17:41.468Z,15.70
2022-12-24T23:20:09.876Z,15.77
2022-12-24T23:22:37.313Z,15.40
2022-12-24T23:25:04.897Z,15.57
2022-12-24T23:27:31.688Z,15.17
2022-12-24T23:29:58.893Z,12.97
2022-12-24T23:32:27.028Z,13.30
2022-12-24T23:34:54.122Z,14.97
2022-12-24T23:37:20.879Z,15.03
2022-12-24T23:39:48.590Z,17.40
2022-12-24T23:42:15.359Z,17.03
2022-12-24T23:44:42.469Z,16.67
2022-12-24T23:47:09.234Z,17.77
2022-12-24T23:49:37.688Z,17.77
2022-12-24T23:52:04.774Z,16.80
2022-12-24T23:54:31.899Z,17.73
2022-12-24T23:57:00.141Z,17.33
2022-12-24T23:59:27.270Z,17.20
